sensor_id;sensor_type;location;lat;lon;timestamp;pressure;altitude;pressure_sealevel;temperature;humidity
76126;BME280;65174;48.138;21.002;2023-05-10T00:02:24;99728.09;;;9.69;54.38
76126;BME280;65174;48.138;21.002;2023-05-10T00:05:26;99737.91;;;9.62;55.02
76126;BME280;65174;48.138;21.002;2023-05-10T00:08:28;99737.50;;;9.54;55.36
76126;BME280;65174;48.138;21.002;2023-05-10T00:11:30;99729.53;;;9.43;55.39
76126;BME280;65174;48.138;21.002;2023-05-10T00:14:32;99721.50;;;9.33;55.75
76126;BME280;65174;48.138;21.002;2023-05-10T00:17:34;99718.16;;;9.31;55.74
76126;BME280;65174;48.138;21.002;2023-05-10T00:20:36;99727.03;;;9.26;56.63
76126;BME280;65174;48.138;21.002;2023-05-10T00:23:38;99720.59;;;9.19;56.42
76126;BME280;65174;48.138;21.002;2023-05-10T00:26:40;99718.50;;;9.10;56.73
76126;BME280;65174;48.138;21.002;2023-05-10T00:29:43;99717.75;;;9.08;57.06
76126;BME280;65174;48.138;21.002;2023-05-10T00:32:45;99712.13;;;9.17;56.77
76126;BME280;65174;48.138;21.002;2023-05-10T00:35:49;99723.72;;;9.24;56.30
76126;BME280;65174;48.138;21.002;2023-05-10T00:38:51;99712.75;;;9.20;56.99
76126;BME280;65174;48.138;21.002;2023-05-10T00:41:53;99697.16;;;9.08;57.06
76126;BME280;65174;48.138;21.002;2023-05-10T00:44:56;99708.19;;;9.10;56.62
76126;BME280;65174;48.138;21.002;2023-05-10T00:48:01;99703.03;;;9.10;56.89
76126;BME280;65174;48.138;21.002;2023-05-10T00:51:04;99702.22;;;9.09;56.87
76126;BME280;65174;48.138;21.002;2023-05-10T00:54:06;99704.38;;;9.17;56.75
76126;BME280;65174;48.138;21.002;2023-05-10T00:57:09;99695.91;;;9.15;56.72
76126;BME280;65174;48.138;21.002;2023-05-10T01:00:12;99701.56;;;9.06;56.58
76126;BME280;65174;48.138;21.002;2023-05-10T01:03:14;99698.47;;;8.99;57.29
76126;BME280;65174;48.138;21.002;2023-05-10T01:06:16;99693.31;;;8.99;57.12
76126;BME280;65174;48.138;21.002;2023-05-10T01:09:20;99695.41;;;8.93;57.50
76126;BME280;65174;48.138;21.002;2023-05-10T01:12:23;99694.13;;;8.84;57.67
76126;BME280;65174;48.138;21.002;2023-05-10T01:15:25;99692.59;;;8.82;58.28
76126;BME280;65174;48.138;21.002;2023-05-10T01:18:29;99697.16;;;8.92;58.28
76126;BME280;65174;48.138;21.002;2023-05-10T01:28:57;99691.44;;;8.54;59.32
76126;BME280;65174;48.138;21.002;2023-05-10T01:32:08;99697.34;;;8.56;59.27
76126;BME280;65174;48.138;21.002;2023-05-10T01:35:38;99689.44;;;8.44;59.40
76126;BME280;65174;48.138;21.002;2023-05-10T01:38:51;99680.28;;;8.38;59.70
76126;BME280;65174;48.138;21.002;2023-05-10T01:42:11;99688.31;;;8.32;60.10
76126;BME280;65174;48.138;21.002;2023-05-10T01:45:22;99686.66;;;8.31;59.85
76126;BME280;65174;48.138;21.002;2023-05-10T01:48:28;99690.03;;;8.15;60.55
76126;BME280;65174;48.138;21.002;2023-05-10T01:51:41;99687.06;;;8.22;60.01
76126;BME280;65174;48.138;21.002;2023-05-10T01:54:53;99678.53;;;8.22;59.91
76126;BME280;65174;48.138;21.002;2023-05-10T01:58:06;99677.63;;;8.23;59.46
76126;BME280;65174;48.138;21.002;2023-05-10T02:01:09;99677.94;;;8.34;59.45
76126;BME280;65174;48.138;21.002;2023-05-10T02:04:14;99679.75;;;8.15;59.86
76126;BME280;65174;48.138;21.002;2023-05-10T02:07:17;99666.91;;;8.15;59.93
76126;BME280;65174;48.138;21.002;2023-05-10T02:10:20;99667.59;;;8.18;59.87
76126;BME280;65174;48.138;21.002;2023-05-10T02:13:23;99667.41;;;8.21;59.78
76126;BME280;65174;48.138;21.002;2023-05-10T02:16:27;99665.25;;;8.14;59.84
76126;BME280;65174;48.138;21.002;2023-05-10T02:19:34;99668.34;;;8.20;60.00
76126;BME280;65174;48.138;21.002;2023-05-10T02:22:38;99671.97;;;8.16;59.89
76126;BME280;65174;48.138;21.002;2023-05-10T02:25:43;99678.41;;;8.08;60.08
76126;BME280;65174;48.138;21.002;2023-05-10T02:28:46;99684.69;;;8.02;60.41
76126;BME280;65174;48.138;21.002;2023-05-10T02:31:51;99678.09;;;7.96;60.61
76126;BME280;65174;48.138;21.002;2023-05-10T02:34:54;99681.81;;;7.91;61.17
76126;BME280;65174;48.138;21.002;2023-05-10T02:37:58;99680.34;;;7.85;61.07
76126;BME280;65174;48.138;21.002;2023-05-10T02:41:01;99684.16;;;7.95;60.72
76126;BME280;65174;48.138;21.002;2023-05-10T02:44:06;99690.41;;;8.07;60.29
76126;BME280;65174;48.138;21.002;2023-05-10T02:47:09;99691.56;;;8.01;60.10
76126;BME280;65174;48.138;21.002;2023-05-10T02:50:11;99678.09;;;7.96;60.36
76126;BME280;65174;48.138;21.002;2023-05-10T02:53:22;99685.72;;;7.98;60.31
76126;BME280;65174;48.138;21.002;2023-05-10T02:56:33;99684.50;;;8.05;60.01
76126;BME280;65174;48.138;21.002;2023-05-10T02:59:36;99692.22;;;8.05;60.49
76126;BME280;65174;48.138;21.002;2023-05-10T03:02:38;99675.44;;;7.98;60.12
76126;BME280;65174;48.138;21.002;2023-05-10T03:05:40;99686.94;;;8.08;60.42
76126;BME280;65174;48.138;21.002;2023-05-10T03:08:43;99679.78;;;7.97;60.55
76126;BME280;65174;48.138;21.002;2023-05-10T03:11:53;99676.06;;;8.03;60.44
76126;BME280;65174;48.138;21.002;2023-05-10T03:18:18;99678.00;;;7.98;60.25
76126;BME280;65174;48.138;21.002;2023-05-10T03:21:25;99682.78;;;7.88;60.82
76126;BME280;65174;48.138;21.002;2023-05-10T03:24:30;99678.47;;;7.89;60.62
76126;BME280;65174;48.138;21.002;2023-05-10T03:27:36;99674.69;;;7.96;60.72
76126;BME280;65174;48.138;21.002;2023-05-10T03:30:39;99680.53;;;7.99;60.75
76126;BME280;65174;48.138;21.002;2023-05-10T03:33:51;99676.81;;;8.05;60.67
76126;BME280;65174;48.138;21.002;2023-05-10T03:36:58;99676.50;;;8.11;60.76
76126;BME280;65174;48.138;21.002;2023-05-10T03:40:04;99681.06;;;8.06;60.76
76126;BME280;65174;48.138;21.002;2023-05-10T03:43:09;99677.69;;;8.21;60.35
76126;BME280;65174;48.138;21.002;2023-05-10T03:46:11;99681.00;;;8.23;60.31
76126;BME280;65174;48.138;21.002;2023-05-10T03:49:13;99683.59;;;8.23;60.47
76126;BME280;65174;48.138;21.002;2023-05-10T03:52:15;99680.81;;;8.28;60.27
76126;BME280;65174;48.138;21.002;2023-05-10T03:55:17;99672.13;;;8.30;60.05
76126;BME280;65174;48.138;21.002;2023-05-10T03:58:20;99680.13;;;8.41;60.46
76126;BME280;65174;48.138;21.002;2023-05-10T04:01:22;99675.31;;;8.51;59.77
76126;BME280;65174;48.138;21.002;2023-05-10T04:04:24;99679.91;;;8.61;60.11
76126;BME280;65174;48.138;21.002;2023-05-10T04:07:26;99671.88;;;8.52;59.91
76126;BME280;65174;48.138;21.002;2023-05-10T04:10:28;99677.09;;;8.66;59.50
76126;BME280;65174;48.138;21.002;2023-05-10T04:13:30;99681.97;;;8.88;59.39
76126;BME280;65174;48.138;21.002;2023-05-10T04:16:32;99680.78;;;9.40;58.05
76126;BME280;65174;48.138;21.002;2023-05-10T04:19:34;99688.03;;;9.33;57.44
76126;BME280;65174;48.138;21.002;2023-05-10T04:22:35;99682.81;;;9.65;56.89
76126;BME280;65174;48.138;21.002;2023-05-10T04:25:37;99686.09;;;9.37;57.61
76126;BME280;65174;48.138;21.002;2023-05-10T04:28:39;99688.25;;;9.13;58.45
76126;BME280;65174;48.138;21.002;2023-05-10T04:31:41;99692.06;;;8.91;59.17
76126;BME280;65174;48.138;21.002;2023-05-10T04:34:43;99688.28;;;8.98;59.33
76126;BME280;65174;48.138;21.002;2023-05-10T04:37:45;99687.50;;;9.11;58.54
76126;BME280;65174;48.138;21.002;2023-05-10T04:40:47;99682.56;;;9.08;59.53
76126;BME280;65174;48.138;21.002;2023-05-10T04:43:49;99694.94;;;9.17;58.71
76126;BME280;65174;48.138;21.002;2023-05-10T04:46:51;99689.50;;;9.37;58.21
76126;BME280;65174;48.138;21.002;2023-05-10T04:49:53;99693.44;;;10.33;56.08
76126;BME280;65174;48.138;21.002;2023-05-10T04:52:55;99688.47;;;10.45;55.17
76126;BME280;65174;48.138;21.002;2023-05-10T04:55:57;99682.53;;;10.14;56.29
76126;BME280;65174;48.138;21.002;2023-05-10T04:58:59;99680.38;;;10.36;56.24
76126;BME280;65174;48.138;21.002;2023-05-10T05:02:01;99677.81;;;10.07;56.55
76126;BME280;65174;48.138;21.002;2023-05-10T05:05:04;99677.59;;;10.10;56.83
76126;BME280;65174;48.138;21.002;2023-05-10T05:08:06;99675.47;;;10.32;56.96
76126;BME280;65174;48.138;21.002;2023-05-10T05:11:08;99671.16;;;10.32;57.36
76126;BME280;65174;48.138;21.002;2023-05-10T05:14:10;99667.09;;;10.85;56.02
76126;BME280;65174;48.138;21.002;2023-05-10T05:17:12;99663.53;;;10.45;55.44
76126;BME280;65174;48.138;21.002;2023-05-10T05:20:14;99660.78;;;11.03;55.67
76126;BME280;65174;48.138;21.002;2023-05-10T05:23:16;99666.50;;;10.94;55.83
76126;BME280;65174;48.138;21.002;2023-05-10T05:26:18;99668.16;;;11.09;54.89
76126;BME280;65174;48.138;21.002;2023-05-10T05:29:21;99671.44;;;11.52;54.64
76126;BME280;65174;48.138;21.002;2023-05-10T05:32:23;99667.03;;;11.40;54.61
76126;BME280;65174;48.138;21.002;2023-05-10T05:35:25;99668.59;;;11.95;53.20
76126;BME280;65174;48.138;21.002;2023-05-10T05:38:27;99679.41;;;11.88;52.83
76126;BME280;65174;48.138;21.002;2023-05-10T05:41:29;99686.16;;;11.64;54.01
76126;BME280;65174;48.138;21.002;2023-05-10T05:44:31;99683.34;;;11.81;54.17
76126;BME280;65174;48.138;21.002;2023-05-10T05:47:33;99684.72;;;12.12;52.89
76126;BME280;65174;48.138;21.002;2023-05-10T05:50:35;99703.88;;;12.22;52.58
76126;BME280;65174;48.138;21.002;2023-05-10T05:53:37;99697.88;;;12.21;53.20
76126;BME280;65174;48.138;21.002;2023-05-10T05:56:39;99701.09;;;11.59;54.20
76126;BME280;65174;48.138;21.002;2023-05-10T05:59:41;99701.59;;;12.42;53.63
76126;BME280;65174;48.138;21.002;2023-05-10T06:02:45;99708.47;;;11.79;54.20
76126;BME280;65174;48.138;21.002;2023-05-10T06:05:47;99714.59;;;12.03;54.25
76126;BME280;65174;48.138;21.002;2023-05-10T06:08:50;99712.59;;;12.33;53.84
76126;BME280;65174;48.138;21.002;2023-05-10T06:11:51;99712.69;;;12.44;53.46
76126;BME280;65174;48.138;21.002;2023-05-10T06:14:53;99708.75;;;12.64;52.47
76126;BME280;65174;48.138;21.002;2023-05-10T06:17:55;99712.28;;;12.75;52.61
76126;BME280;65174;48.138;21.002;2023-05-10T06:20:57;99711.31;;;12.89;52.32
76126;BME280;65174;48.138;21.002;2023-05-10T06:23:59;99708.34;;;12.70;53.00
76126;BME280;65174;48.138;21.002;2023-05-10T06:27:01;99713.50;;;12.70;52.64
76126;BME280;65174;48.138;21.002;2023-05-10T06:30:04;99719.19;;;13.36;51.15
76126;BME280;65174;48.138;21.002;2023-05-10T06:33:14;99716.47;;;13.14;52.22
76126;BME280;65174;48.138;21.002;2023-05-10T06:36:17;99721.25;;;13.08;52.17
76126;BME280;65174;48.138;21.002;2023-05-10T06:39:19;99724.13;;;13.16;51.90
76126;BME280;65174;48.138;21.002;2023-05-10T06:42:21;99722.00;;;12.72;53.54
76126;BME280;65174;48.138;21.002;2023-05-10T06:45:23;99722.44;;;13.40;51.51
76126;BME280;65174;48.138;21.002;2023-05-10T06:48:25;99729.72;;;13.82;50.68
76126;BME280;65174;48.138;21.002;2023-05-10T06:51:27;99723.72;;;13.09;52.85
76126;BME280;65174;48.138;21.002;2023-05-10T06:54:49;99726.63;;;13.30;52.38
76126;BME280;65174;48.138;21.002;2023-05-10T06:57:51;99726.09;;;13.61;52.64
76126;BME280;65174;48.138;21.002;2023-05-10T07:00:53;99721.38;;;13.42;52.50
76126;BME280;65174;48.138;21.002;2023-05-10T07:03:55;99729.88;;;13.92;51.49
76126;BME280;65174;48.138;21.002;2023-05-10T07:06:57;99726.59;;;14.01;50.78
76126;BME280;65174;48.138;21.002;2023-05-10T07:09:59;99735.13;;;14.14;51.65
76126;BME280;65174;48.138;21.002;2023-05-10T07:13:01;99732.75;;;14.35;51.25
76126;BME280;65174;48.138;21.002;2023-05-10T07:16:23;99731.34;;;13.60;51.97
76126;BME280;65174;48.138;21.002;2023-05-10T07:20:26;99730.09;;;13.41;52.65
76126;BME280;65174;48.138;21.002;2023-05-10T07:24:28;99727.06;;;13.71;52.86
76126;BME280;65174;48.138;21.002;2023-05-10T07:28:30;99728.16;;;14.14;51.62
76126;BME280;65174;48.138;21.002;2023-05-10T07:32:31;99721.38;;;13.42;54.06
76126;BME280;65174;48.138;21.002;2023-05-10T07:36:33;99729.91;;;14.03;53.13
76126;BME280;65174;48.138;21.002;2023-05-10T07:40:35;99732.34;;;14.85;51.20
76126;BME280;65174;48.138;21.002;2023-05-10T07:44:36;99725.63;;;14.25;52.07
76126;BME280;65174;48.138;21.002;2023-05-10T07:48:18;99727.13;;;14.96;52.42
76126;BME280;65174;48.138;21.002;2023-05-10T07:51:20;99731.16;;;15.11;51.52
76126;BME280;65174;48.138;21.002;2023-05-10T07:54:22;99733.88;;;14.98;51.90
76126;BME280;65174;48.138;21.002;2023-05-10T07:57:24;99729.88;;;15.70;50.79
76126;BME280;65174;48.138;21.002;2023-05-10T08:00:26;99727.00;;;15.31;52.24
76126;BME280;65174;48.138;21.002;2023-05-10T08:03:28;99731.94;;;15.56;50.51
76126;BME280;65174;48.138;21.002;2023-05-10T08:06:30;99736.72;;;15.71;50.63
76126;BME280;65174;48.138;21.002;2023-05-10T08:09:33;99736.91;;;15.90;50.20
76126;BME280;65174;48.138;21.002;2023-05-10T08:12:35;99728.38;;;16.20;49.39
76126;BME280;65174;48.138;21.002;2023-05-10T08:15:37;99735.00;;;15.93;50.36
76126;BME280;65174;48.138;21.002;2023-05-10T08:18:39;99734.31;;;15.48;51.69
76126;BME280;65174;48.138;21.002;2023-05-10T08:21:41;99741.00;;;15.61;50.01
76126;BME280;65174;48.138;21.002;2023-05-10T08:24:43;99736.53;;;15.52;51.32
76126;BME280;65174;48.138;21.002;2023-05-10T08:27:45;99742.50;;;14.99;52.96
76126;BME280;65174;48.138;21.002;2023-05-10T08:30:49;99740.25;;;14.94;53.38
76126;BME280;65174;48.138;21.002;2023-05-10T08:33:51;99740.38;;;14.93;53.39
76126;BME280;65174;48.138;21.002;2023-05-10T08:36:54;99739.06;;;14.65;53.77
76126;BME280;65174;48.138;21.002;2023-05-10T08:40:19;99744.13;;;14.78;53.84
76126;BME280;65174;48.138;21.002;2023-05-10T08:43:41;99741.16;;;14.60;53.92
76126;BME280;65174;48.138;21.002;2023-05-10T08:47:08;99734.69;;;14.99;53.20
76126;BME280;65174;48.138;21.002;2023-05-10T08:50:32;99734.56;;;15.87;51.58
76126;BME280;65174;48.138;21.002;2023-05-10T08:53:55;99736.56;;;15.84;52.33
76126;BME280;65174;48.138;21.002;2023-05-10T08:57:18;99736.31;;;15.87;50.86
76126;BME280;65174;48.138;21.002;2023-05-10T09:00:40;99728.38;;;15.57;51.73
76126;BME280;65174;48.138;21.002;2023-05-10T09:04:02;99734.31;;;15.48;53.43
76126;BME280;65174;48.138;21.002;2023-05-10T09:07:06;99733.44;;;15.58;52.00
76126;BME280;65174;48.138;21.002;2023-05-10T09:10:09;99729.06;;;16.22;51.84
76126;BME280;65174;48.138;21.002;2023-05-10T09:13:12;99728.78;;;16.05;51.37
76126;BME280;65174;48.138;21.002;2023-05-10T09:16:15;99727.59;;;17.40;49.21
76126;BME280;65174;48.138;21.002;2023-05-10T09:19:23;99736.13;;;17.03;49.48
76126;BME280;65174;48.138;21.002;2023-05-10T09:22:25;99729.91;;;16.94;50.10
76126;BME280;65174;48.138;21.002;2023-05-10T09:25:27;99733.97;;;16.78;51.64
76126;BME280;65174;48.138;21.002;2023-05-10T09:28:32;99730.00;;;17.23;50.59
76126;BME280;65174;48.138;21.002;2023-05-10T09:31:48;99732.19;;;17.18;49.25
76126;BME280;65174;48.138;21.002;2023-05-10T09:34:52;99727.09;;;16.35;51.21
76126;BME280;65174;48.138;21.002;2023-05-10T09:37:56;99733.06;;;16.06;50.62
76126;BME280;65174;48.138;21.002;2023-05-10T09:41:00;99733.50;;;16.11;50.35
76126;BME280;65174;48.138;21.002;2023-05-10T09:44:04;99722.50;;;16.28;50.09
76126;BME280;65174;48.138;21.002;2023-05-10T09:47:06;99723.34;;;16.49;49.07
76126;BME280;65174;48.138;21.002;2023-05-10T09:50:09;99716.22;;;16.10;50.05
76126;BME280;65174;48.138;21.002;2023-05-10T09:53:14;99719.09;;;16.68;48.83
76126;BME280;65174;48.138;21.002;2023-05-10T09:56:35;99710.09;;;16.52;48.38
76126;BME280;65174;48.138;21.002;2023-05-10T09:59:42;99706.75;;;17.01;46.97
76126;BME280;65174;48.138;21.002;2023-05-10T10:03:03;99708.72;;;16.78;47.36
76126;BME280;65174;48.138;21.002;2023-05-10T10:06:07;99699.31;;;17.36;45.38
76126;BME280;65174;48.138;21.002;2023-05-10T10:09:43;99703.28;;;17.40;43.71
76126;BME280;65174;48.138;21.002;2023-05-10T10:13:06;99693.78;;;17.29;44.72
76126;BME280;65174;48.138;21.002;2023-05-10T10:16:29;99697.47;;;17.17;43.75
76126;BME280;65174;48.138;21.002;2023-05-10T10:19:51;99698.63;;;17.34;42.90
76126;BME280;65174;48.138;21.002;2023-05-10T10:23:13;99697.13;;;16.92;44.56
76126;BME280;65174;48.138;21.002;2023-05-10T10:26:18;99696.69;;;17.45;44.14
76126;BME280;65174;48.138;21.002;2023-05-10T10:36:15;99688.22;;;17.72;41.02
76126;BME280;65174;48.138;21.002;2023-05-10T10:39:18;99685.88;;;17.40;41.51
76126;BME280;65174;48.138;21.002;2023-05-10T10:42:43;99677.66;;;17.64;40.84
76126;BME280;65174;48.138;21.002;2023-05-10T10:46:25;99672.97;;;18.15;39.64
76126;BME280;65174;48.138;21.002;2023-05-10T10:49:27;99670.91;;;18.00;41.03
76126;BME280;65174;48.138;21.002;2023-05-10T10:52:39;99667.13;;;18.50;39.76
76126;BME280;65174;48.138;21.002;2023-05-10T10:55:48;99656.34;;;18.63;38.82
76126;BME280;65174;48.138;21.002;2023-05-10T10:58:51;99664.50;;;18.60;38.90
76126;BME280;65174;48.138;21.002;2023-05-10T11:01:54;99649.94;;;19.29;39.30
76126;BME280;65174;48.138;21.002;2023-05-10T11:04:55;99639.91;;;18.80;39.65
76126;BME280;65174;48.138;21.002;2023-05-10T11:07:59;99645.78;;;19.36;38.91
76126;BME280;65174;48.138;21.002;2023-05-10T11:11:03;99644.41;;;18.87;38.25
76126;BME280;65174;48.138;21.002;2023-05-10T11:14:08;99651.78;;;19.46;38.15
76126;BME280;65174;48.138;21.002;2023-05-10T11:17:27;99645.00;;;19.71;36.40
76126;BME280;65174;48.138;21.002;2023-05-10T11:20:39;99634.84;;;19.23;38.47
76126;BME280;65174;48.138;21.002;2023-05-10T11:26:50;99636.50;;;19.24;39.52
76126;BME280;65174;48.138;21.002;2023-05-10T11:29:52;99634.34;;;19.55;37.72
76126;BME280;65174;48.138;21.002;2023-05-10T11:32:54;99632.56;;;19.55;36.78
76126;BME280;65174;48.138;21.002;2023-05-10T11:35:57;99624.13;;;18.99;37.39
76126;BME280;65174;48.138;21.002;2023-05-10T11:38:58;99631.53;;;19.21;36.53
76126;BME280;65174;48.138;21.002;2023-05-10T11:42:00;99622.31;;;19.44;36.21
76126;BME280;65174;48.138;21.002;2023-05-10T11:45:03;99612.78;;;19.08;36.71
76126;BME280;65174;48.138;21.002;2023-05-10T11:48:05;99616.88;;;19.55;35.51
76126;BME280;65174;48.138;21.002;2023-05-10T11:51:10;99608.41;;;19.44;36.47
76126;BME280;65174;48.138;21.002;2023-05-10T11:54:12;99612.81;;;19.61;34.48
76126;BME280;65174;48.138;21.002;2023-05-10T11:57:14;99609.72;;;20.09;34.36
76126;BME280;65174;48.138;21.002;2023-05-10T12:00:16;99614.91;;;20.01;34.10
76126;BME280;65174;48.138;21.002;2023-05-10T12:03:19;99601.81;;;20.01;34.37
76126;BME280;65174;48.138;21.002;2023-05-10T12:06:21;99583.44;;;20.18;36.33
76126;BME280;65174;48.138;21.002;2023-05-10T12:09:44;99610.50;;;19.23;35.68
76126;BME280;65174;48.138;21.002;2023-05-10T12:13:12;99609.75;;;19.65;36.57
76126;BME280;65174;48.138;21.002;2023-05-10T12:16:37;99613.78;;;20.03;35.44
76126;BME280;65174;48.138;21.002;2023-05-10T12:20:13;99608.38;;;20.22;34.07
76126;BME280;65174;48.138;21.002;2023-05-10T12:23:16;99607.28;;;20.33;33.67
76126;BME280;65174;48.138;21.002;2023-05-10T12:30:32;99593.06;;;20.35;32.84
76126;BME280;65174;48.138;21.002;2023-05-10T12:33:38;99592.94;;;20.19;32.75
76126;BME280;65174;48.138;21.002;2023-05-10T12:36:40;99581.69;;;20.01;34.84
76126;BME280;65174;48.138;21.002;2023-05-10T12:39:44;99587.28;;;20.66;33.06
76126;BME280;65174;48.138;21.002;2023-05-10T12:42:46;99580.84;;;20.44;32.66
76126;BME280;65174;48.138;21.002;2023-05-10T12:45:48;99566.19;;;20.33;31.83
76126;BME280;65174;48.138;21.002;2023-05-10T12:48:50;99565.47;;;19.98;31.77
76126;BME280;65174;48.138;21.002;2023-05-10T12:52:09;99571.28;;;20.77;33.09
76126;BME280;65174;48.138;21.002;2023-05-10T12:55:11;99567.56;;;19.94;33.11
76126;BME280;65174;48.138;21.002;2023-05-10T12:58:13;99558.34;;;19.82;32.76
76126;BME280;65174;48.138;21.002;2023-05-10T13:01:35;99566.72;;;19.86;33.75
76126;BME280;65174;48.138;21.002;2023-05-10T13:04:37;99547.78;;;19.92;34.13
76126;BME280;65174;48.138;21.002;2023-05-10T13:07:41;99556.25;;;19.25;34.89
76126;BME280;65174;48.138;21.002;2023-05-10T13:11:05;99551.28;;;19.04;34.38
76126;BME280;65174;48.138;21.002;2023-05-10T13:14:27;99548.81;;;19.02;34.89
76126;BME280;65174;48.138;21.002;2023-05-10T13:18:09;99545.03;;;18.97;34.85
76126;BME280;65174;48.138;21.002;2023-05-10T13:21:11;99546.28;;;18.93;34.52
76126;BME280;65174;48.138;21.002;2023-05-10T13:24:13;99551.28;;;18.32;35.05
76126;BME280;65174;48.138;21.002;2023-05-10T13:27:16;99539.16;;;18.68;35.43
76126;BME280;65174;48.138;21.002;2023-05-10T13:30:18;99550.38;;;18.78;35.70
76126;BME280;65174;48.138;21.002;2023-05-10T13:33:20;99541.34;;;18.90;34.75
76126;BME280;65174;48.138;21.002;2023-05-10T13:36:22;99545.81;;;18.80;34.05
76126;BME280;65174;48.138;21.002;2023-05-10T13:39:24;99542.03;;;18.47;33.78
76126;BME280;65174;48.138;21.002;2023-05-10T13:42:26;99529.16;;;18.26;34.16
76126;BME280;65174;48.138;21.002;2023-05-10T13:45:28;99531.41;;;18.76;34.42
76126;BME280;65174;48.138;21.002;2023-05-10T13:48:30;99537.06;;;18.71;34.33
76126;BME280;65174;48.138;21.002;2023-05-10T13:51:33;99529.31;;;18.79;34.17
76126;BME280;65174;48.138;21.002;2023-05-10T13:54:36;99532.19;;;17.95;33.36
76126;BME280;65174;48.138;21.002;2023-05-10T13:57:39;99523.16;;;18.16;34.04
76126;BME280;65174;48.138;21.002;2023-05-10T14:00:41;99521.91;;;18.75;33.71
76126;BME280;65174;48.138;21.002;2023-05-10T14:03:43;99520.56;;;18.71;34.22
76126;BME280;65174;48.138;21.002;2023-05-10T14:06:45;99514.09;;;19.10;34.25
76126;BME280;65174;48.138;21.002;2023-05-10T14:09:47;99508.84;;;19.45;34.89
76126;BME280;65174;48.138;21.002;2023-05-10T14:12:49;99508.00;;;19.27;32.98
76126;BME280;65174;48.138;21.002;2023-05-10T14:15:52;99510.59;;;19.01;33.06
76126;BME280;65174;48.138;21.002;2023-05-10T14:18:55;99510.41;;;18.85;34.07
76126;BME280;65174;48.138;21.002;2023-05-10T14:21:57;99510.38;;;18.50;34.06
76126;BME280;65174;48.138;21.002;2023-05-10T14:24:59;99509.50;;;18.59;34.07
76126;BME280;65174;48.138;21.002;2023-05-10T14:28:02;99504.56;;;18.56;33.50
76126;BME280;65174;48.138;21.002;2023-05-10T14:31:04;99511.22;;;18.41;33.51
76126;BME280;65174;48.138;21.002;2023-05-10T14:34:07;99506.44;;;18.37;34.12
76126;BME280;65174;48.138;21.002;2023-05-10T14:37:10;99507.03;;;18.31;33.78
76126;BME280;65174;48.138;21.002;2023-05-10T14:40:13;99501.44;;;18.16;33.64
76126;BME280;65174;48.138;21.002;2023-05-10T14:43:15;99505.19;;;18.13;34.07
76126;BME280;65174;48.138;21.002;2023-05-10T14:46:17;99497.94;;;18.07;34.13
76126;BME280;65174;48.138;21.002;2023-05-10T14:49:19;99490.47;;;18.12;34.28
76126;BME280;65174;48.138;21.002;2023-05-10T14:52:24;99501.22;;;18.37;33.27
76126;BME280;65174;48.138;21.002;2023-05-10T14:55:26;99492.94;;;18.68;32.46
76126;BME280;65174;48.138;21.002;2023-05-10T14:58:28;99490.03;;;18.71;31.98
76126;BME280;65174;48.138;21.002;2023-05-10T15:01:30;99475.78;;;19.01;31.22
76126;BME280;65174;48.138;21.002;2023-05-10T15:04:33;99478.91;;;19.04;30.97
76126;BME280;65174;48.138;21.002;2023-05-10T15:07:35;99474.31;;;19.24;30.00
76126;BME280;65174;48.138;21.002;2023-05-10T15:10:38;99483.16;;;19.06;32.01
76126;BME280;65174;48.138;21.002;2023-05-10T15:13:40;99474.94;;;19.18;31.69
76126;BME280;65174;48.138;21.002;2023-05-10T15:16:42;99471.66;;;19.16;30.71
76126;BME280;65174;48.138;21.002;2023-05-10T15:19:44;99474.09;;;19.18;30.85
76126;BME280;65174;48.138;21.002;2023-05-10T15:22:46;99470.38;;;19.20;31.06
76126;BME280;65174;48.138;21.002;2023-05-10T15:25:48;99464.53;;;19.26;31.21
76126;BME280;65174;48.138;21.002;2023-05-10T15:28:51;99470.72;;;19.25;30.10
76126;BME280;65174;48.138;21.002;2023-05-10T15:31:54;99463.69;;;19.26;29.68
76126;BME280;65174;48.138;21.002;2023-05-10T15:34:56;99469.50;;;19.12;30.21
76126;BME280;65174;48.138;21.002;2023-05-10T15:37:58;99463.81;;;19.16;30.71
76126;BME280;65174;48.138;21.002;2023-05-10T15:41:00;99466.75;;;18.95;29.97
76126;BME280;65174;48.138;21.002;2023-05-10T15:44:02;99466.13;;;18.84;31.62
76126;BME280;65174;48.138;21.002;2023-05-10T15:47:04;99459.84;;;18.94;30.58
76126;BME280;65174;48.138;21.002;2023-05-10T15:50:08;99458.13;;;19.03;30.36
76126;BME280;65174;48.138;21.002;2023-05-10T15:53:10;99459.03;;;19.12;29.32
76126;BME280;65174;48.138;21.002;2023-05-10T15:56:12;99453.13;;;18.92;30.19
76126;BME280;65174;48.138;21.002;2023-05-10T15:59:14;99455.16;;;18.80;30.32
76126;BME280;65174;48.138;21.002;2023-05-10T16:02:16;99451.44;;;18.83;30.37
76126;BME280;65174;48.138;21.002;2023-05-10T16:05:20;99452.19;;;18.58;31.13
76126;BME280;65174;48.138;21.002;2023-05-10T16:08:22;99454.19;;;18.64;31.06
76126;BME280;65174;48.138;21.002;2023-05-10T16:11:24;99446.03;;;18.67;30.85
76126;BME280;65174;48.138;21.002;2023-05-10T16:14:26;99455.28;;;18.44;31.11
76126;BME280;65174;48.138;21.002;2023-05-10T16:17:28;99451.88;;;18.61;30.74
76126;BME280;65174;48.138;21.002;2023-05-10T16:20:31;99453.88;;;18.49;31.10
76126;BME280;65174;48.138;21.002;2023-05-10T16:23:33;99454.78;;;18.58;31.16
76126;BME280;65174;48.138;21.002;2023-05-10T16:26:35;99448.34;;;18.52;31.87
76126;BME280;65174;48.138;21.002;2023-05-10T16:29:41;99448.88;;;18.28;31.09
76126;BME280;65174;48.138;21.002;2023-05-10T16:32:43;99454.88;;;18.39;31.72
76126;BME280;65174;48.138;21.002;2023-05-10T16:35:45;99456.03;;;18.26;31.86
76126;BME280;65174;48.138;21.002;2023-05-10T16:38:47;99445.38;;;18.20;32.80
76126;BME280;65174;48.138;21.002;2023-05-10T16:41:49;99451.63;;;18.09;32.63
76126;BME280;65174;48.138;21.002;2023-05-10T16:44:51;99452.03;;;18.05;32.02